createdAt,value
2022-11-05T00:02:38.657Z,19.70
2022-11-05T00:05:21.589Z,19.07
2022-11-05T00:08:08.746Z,15.27
2022-11-05T00:10:40.905Z,19.97
2022-11-05T00:13:24.889Z,19.33
2022-11-05T00:16:07.427Z,15.93
2022-11-05T00:18:39.910Z,17.23
2022-11-05T00:21:30.805Z,12.47
2022-11-05T00:24:13.021Z,15.07
2022-11-05T00:26:42.788Z,12.00
2022-11-05T00:29:12.569Z,11.20
2022-11-05T00:31:42.343Z,13.00
2022-11-05T00:34:14.695Z,11.43
2022-11-05T00:36:44.490Z,18.43
2022-11-05T00:39:14.686Z,12.87
2022-11-05T00:41:44.525Z,14.00
2022-11-05T00:44:26.758Z,12.50
2022-11-05T00:47:16.693Z,10.53
2022-11-05T00:49:46.469Z,9.80
2022-11-05T00:52:28.747Z,16.13
2022-11-05T00:54:58.476Z,12.03
2022-11-05T00:57:28.272Z,17.80
2022-11-05T00:59:58.053Z,17.80
2022-11-05T01:02:27.956Z,10.90
2022-11-05T01:05:00.486Z,17.13
2022-11-05T01:07:30.281Z,12.90
2022-11-05T01:10:01.214Z,11.07
2022-11-05T01:12:31.336Z,10.63
2022-11-05T01:15:01.234Z,18.60
2022-11-05T01:17:31.031Z,17.83
2022-11-05T01:20:03.485Z,12.10
2022-11-05T01:22:33.261Z,13.40
2022-11-05T01:25:03.056Z,12.23
2022-11-05T01:27:32.830Z,13.33
2022-11-05T01:30:02.574Z,16.33
2022-11-05T01:32:32.327Z,15.57
2022-11-05T01:35:04.905Z,10.43
2022-11-05T01:37:34.758Z,10.90
2022-11-05T01:40:04.917Z,10.47
2022-11-05T01:42:36.215Z,9.13
2022-11-05T01:45:14.948Z,8.83
2022-11-05T01:47:52.687Z,10.13
2022-11-05T01:50:47.370Z,10.43
2022-11-05T01:53:24.502Z,7.00
2022-11-05T01:55:59.831Z,6.93
2022-11-05T01:58:35.379Z,10.33
2022-11-05T02:01:05.211Z,7.50
2022-11-05T02:03:35.170Z,9.10
2022-11-05T02:06:09.400Z,8.50
2022-11-05T02:08:56.541Z,8.43
2022-11-05T02:11:26.922Z,17.57
2022-11-05T02:13:56.725Z,10.40
2022-11-05T02:16:38.286Z,10.07
2022-11-05T02:19:23.332Z,8.73
2022-11-05T02:22:14.463Z,7.50
2022-11-05T02:25:08.048Z,9.87
2022-11-05T02:27:58.082Z,11.60
2022-11-05T02:30:40.053Z,9.40
2022-11-05T02:33:19.903Z,5.77
2022-11-05T02:36:13.608Z,4.43
2022-11-05T02:38:58.585Z,7.30
2022-11-05T02:41:36.836Z,10.43
2022-11-05T02:44:17.704Z,11.90
2022-11-05T02:46:56.985Z,12.87
2022-11-05T02:49:39.316Z,12.73
2022-11-05T02:52:17.307Z,9.20
2022-11-05T02:54:53.810Z,11.50
2022-11-05T02:57:25.113Z,12.53
2022-11-05T03:00:03.725Z,8.63
2022-11-05T03:02:36.735Z,8.93
2022-11-05T03:05:07.972Z,13.67
2022-11-05T03:07:48.113Z,9.27
2022-11-05T03:10:36.397Z,11.73
2022-11-05T03:13:16.891Z,6.67
2022-11-05T03:15:59.256Z,5.40
2022-11-05T03:18:42.936Z,5.33
2022-11-05T03:21:18.813Z,4.40
2022-11-05T03:23:53.489Z,3.40
2022-11-05T03:26:28.507Z,4.20
2022-11-05T03:29:03.244Z,2.70
2022-11-05T03:31:34.043Z,4.10
2022-11-05T03:34:09.280Z,4.10
2022-11-05T03:36:43.460Z,3.93
2022-11-05T03:39:22.072Z,3.83
2022-11-05T03:41:54.621Z,4.20
2022-11-05T03:44:28.181Z,3.63
2022-11-05T03:47:03.694Z,3.73
2022-11-05T03:49:41.373Z,3.57
2022-11-05T03:52:15.585Z,4.33
2022-11-05T03:54:45.518Z,5.07
2022-11-05T03:57:22.040Z,7.83
2022-11-05T03:59:53.553Z,5.20
2022-11-05T04:02:26.569Z,5.50
2022-11-05T04:04:59.027Z,6.77
2022-11-05T04:07:41.321Z,5.23
2022-11-05T04:10:24.548Z,5.13
2022-11-05T04:13:06.797Z,6.03
2022-11-05T04:15:56.896Z,3.97
2022-11-05T04:18:24.058Z,6.20
2022-11-05T04:21:08.852Z,7.83
2022-11-05T04:23:51.079Z,10.47
2022-11-05T04:26:23.396Z,9.07
2022-11-05T04:29:07.969Z,10.20
2022-11-05T04:31:37.863Z,7.07
2022-11-05T04:34:07.687Z,9.07
2022-11-05T04:36:40.059Z,7.63
2022-11-05T04:39:09.850Z,9.13
2022-11-05T04:41:39.821Z,13.40
2022-11-05T04:44:09.608Z,11.53
2022-11-05T04:46:39.354Z,13.70
2022-11-05T04:49:09.128Z,10.50
2022-11-05T04:51:41.454Z,11.70
2022-11-05T04:54:11.238Z,9.53
2022-11-05T04:56:40.981Z,13.10
2022-11-05T04:59:10.731Z,7.83
2022-11-05T05:01:40.741Z,6.77
2022-11-05T05:04:10.597Z,8.97
2022-11-05T05:06:42.889Z,11.30
2022-11-05T05:09:12.685Z,13.20
2022-11-05T05:11:42.411Z,10.70
2022-11-05T05:14:12.586Z,8.20
2022-11-05T05:16:42.345Z,7.40
2022-11-05T05:19:12.115Z,12.57
2022-11-05T05:21:42.397Z,18.00
2022-11-05T05:24:14.318Z,13.43
2022-11-05T05:26:45.843Z,15.40
2022-11-05T05:29:16.210Z,13.33
2022-11-05T05:31:46.692Z,14.53
2022-11-05T05:34:17.317Z,21.60
2022-11-05T05:36:49.838Z,21.50
2022-11-05T05:39:19.691Z,17.90
2022-11-05T05:41:49.480Z,20.93
2022-11-05T05:44:19.189Z,24.70
2022-11-05T05:46:48.926Z,31.67
2022-11-05T05:49:18.938Z,36.23
2022-11-05T05:51:51.285Z,23.07
2022-11-05T05:54:30.886Z,20.97
2022-11-05T05:57:03.786Z,12.63
2022-11-05T05:59:35.602Z,15.93
2022-11-05T06:02:06.549Z,13.43
2022-11-05T06:04:41.062Z,14.03
2022-11-05T06:07:14.534Z,17.37
2022-11-05T06:09:45.298Z,21.43
2022-11-05T06:12:16.137Z,18.70
2022-11-05T06:14:51.059Z,22.13
2022-11-05T06:17:21.924Z,25.40
2022-11-05T06:19:51.706Z,23.97
2022-11-05T06:22:24.764Z,30.33
2022-11-05T06:24:54.758Z,25.07
2022-11-05T06:27:24.562Z,27.50
2022-11-05T06:29:55.538Z,21.20
2022-11-05T06:32:25.418Z,21.50
2022-11-05T06:35:00.051Z,32.03
2022-11-05T06:37:34.236Z,25.67
2022-11-05T06:40:05.069Z,24.40
2022-11-05T06:42:35.904Z,23.77
2022-11-05T06:45:07.849Z,28.33
2022-11-05T06:47:37.733Z,28.40
2022-11-05T06:50:09.451Z,24.40
2022-11-05T06:52:42.840Z,23.57
2022-11-05T06:55:13.708Z,24.30
2022-11-05T06:57:45.578Z,26.20
2022-11-05T07:00:17.642Z,28.77
2022-11-05T07:02:49.085Z,28.60
2022-11-05T07:05:20.334Z,22.20
2022-11-05T07:07:53.712Z,26.40
2022-11-05T07:10:24.611Z,26.00
2022-11-05T07:12:55.492Z,26.07
2022-11-05T07:15:26.489Z,26.13
2022-11-05T07:18:01.116Z,32.93
2022-11-05T07:20:34.202Z,25.30
2022-11-05T07:23:10.789Z,25.30
2022-11-05T07:25:41.980Z,30.07
2022-11-05T07:28:14.571Z,28.10
2022-11-05T07:30:45.478Z,34.77
2022-11-05T07:33:15.422Z,29.40
2022-11-05T07:35:45.354Z,27.43
2022-11-05T07:38:23.672Z,32.20
2022-11-05T07:40:53.496Z,31.50
2022-11-05T07:43:24.307Z,29.00
2022-11-05T07:45:59.245Z,33.43
2022-11-05T07:48:31.113Z,39.80
2022-11-05T07:51:01.894Z,37.00
2022-11-05T07:53:34.308Z,38.57
2022-11-05T07:56:05.095Z,36.10
2022-11-05T07:58:37.028Z,33.83
2022-11-05T08:01:08.168Z,35.60
2022-11-05T08:03:40.145Z,35.60
2022-11-05T08:06:11.087Z,40.63
2022-11-05T08:08:44.469Z,44.63
2022-11-05T08:11:14.749Z,35.80
2022-11-05T08:13:45.060Z,45.40
2022-11-05T08:16:15.881Z,44.53
2022-11-05T08:18:45.913Z,40.70
2022-11-05T08:21:16.772Z,44.93
2022-11-05T08:23:50.145Z,42.57
2022-11-05T08:26:20.921Z,44.57
2022-11-05T08:28:51.693Z,47.60
2022-11-05T08:31:22.491Z,42.33
2022-11-05T08:33:57.114Z,42.90
2022-11-05T08:36:30.585Z,40.73
2022-11-05T08:39:04.330Z,44.30
2022-11-05T08:41:34.297Z,48.03
2022-11-05T08:44:09.263Z,41.00
2022-11-05T08:46:41.790Z,48.33
2022-11-05T08:49:12.067Z,42.87
2022-11-05T08:51:41.969Z,41.03
2022-11-05T08:54:16.117Z,44.00
2022-11-05T08:56:47.858Z,43.70
2022-11-05T08:59:18.694Z,42.23
2022-11-05T09:01:50.546Z,43.77
2022-11-05T09:04:21.462Z,52.73
2022-11-05T09:06:56.176Z,42.30
2022-11-05T09:09:28.550Z,40.90
2022-11-05T09:12:12.350Z,41.97
2022-11-05T09:14:43.631Z,39.33
2022-11-05T09:17:19.664Z,41.03
2022-11-05T09:19:49.511Z,43.70
2022-11-05T09:22:19.448Z,38.97
2022-11-05T09:24:51.807Z,36.17
2022-11-05T09:27:21.655Z,38.80
2022-11-05T09:29:51.410Z,40.00
2022-11-05T09:32:23.255Z,41.00
2022-11-05T09:34:54.071Z,43.00
2022-11-05T09:37:23.845Z,33.20
2022-11-05T09:39:57.500Z,40.70
2022-11-05T09:42:32.151Z,40.73
2022-11-05T09:45:05.978Z,38.10
2022-11-05T09:47:39.639Z,36.80
2022-11-05T09:50:17.264Z,34.00
2022-11-05T09:52:48.312Z,32.20
2022-11-05T09:55:28.059Z,33.40
2022-11-05T09:58:01.654Z,36.90
2022-11-05T10:00:34.245Z,37.53
2022-11-05T10:03:10.472Z,31.03
2022-11-05T10:05:43.817Z,32.43
2022-11-05T10:08:20.460Z,40.00
2022-11-05T10:10:56.480Z,35.03
2022-11-05T10:13:32.424Z,36.67
2022-11-05T10:16:07.586Z,35.40
2022-11-05T10:18:41.015Z,35.00
2022-11-05T10:21:32.245Z,34.83
2022-11-05T10:24:18.009Z,41.40
2022-11-05T10:26:55.233Z,39.33
2022-11-05T10:29:30.296Z,40.53
2022-11-05T10:32:05.649Z,38.03
2022-11-05T10:34:38.788Z,40.33
2022-11-05T10:37:08.947Z,43.07
2022-11-05T10:39:39.365Z,43.23
2022-11-05T10:42:40.547Z,40.97
2022-11-05T10:45:23.168Z,41.57
2022-11-05T10:48:03.944Z,39.73
2022-11-05T10:50:35.386Z,41.67
2022-11-05T10:53:14.214Z,40.97
2022-11-05T10:55:51.429Z,45.60
2022-11-05T10:58:30.217Z,43.20
2022-11-05T11:01:13.304Z,46.20
2022-11-05T11:03:49.827Z,61.63
2022-11-05T11:06:25.058Z,47.80
2022-11-05T11:08:59.436Z,61.80
2022-11-05T11:11:33.273Z,58.10
2022-11-05T11:14:09.540Z,51.93
2022-11-05T11:16:42.394Z,53.03
2022-11-05T11:19:29.414Z,57.20
2022-11-05T11:22:22.851Z,48.27
2022-11-05T11:24:55.542Z,51.47
2022-11-05T11:27:29.320Z,53.63
2022-11-05T11:30:04.771Z,47.93
2022-11-05T11:32:39.185Z,46.90
2022-11-05T11:35:21.364Z,41.03
2022-11-05T11:37:55.231Z,35.60
2022-11-05T11:40:34.542Z,38.23
2022-11-05T11:43:09.195Z,37.23
2022-11-05T11:45:53.337Z,33.57
2022-11-05T11:48:28.618Z,38.20
2022-11-05T11:51:00.342Z,34.47
2022-11-05T11:53:37.185Z,35.17
2022-11-05T11:56:17.534Z,31.17
2022-11-05T11:58:50.006Z,29.37
2022-11-05T12:02:02.160Z,31.90
2022-11-05T12:04:48.778Z,28.97
2022-11-05T12:07:30.964Z,29.73
2022-11-05T12:10:17.101Z,28.23
2022-11-05T12:12:57.048Z,27.60
2022-11-05T12:15:40.808Z,28.50
2022-11-05T12:18:22.387Z,23.83
2022-11-05T12:21:34.633Z,25.00
2022-11-05T12:24:31.277Z,24.97
2022-11-05T12:27:13.733Z,17.40
2022-11-05T12:29:56.595Z,25.47
2022-11-05T12:32:51.818Z,17.37
2022-11-05T12:35:46.997Z,16.17
2022-11-05T12:38:32.094Z,13.60
2022-11-05T12:41:18.345Z,17.37
2022-11-05T12:44:01.594Z,18.80
2022-11-05T12:46:41.056Z,18.07
2022-11-05T12:49:41.240Z,17.70
2022-11-05T12:52:39.732Z,19.40
2022-11-05T12:55:17.034Z,16.67
2022-11-05T12:57:50.853Z,9.93
2022-11-05T13:00:23.439Z,11.67
2022-11-05T13:02:57.793Z,16.33
2022-11-05T13:05:37.358Z,10.17
2022-11-05T13:08:13.195Z,11.13
2022-11-05T13:10:50.847Z,10.80
2022-11-05T13:13:29.383Z,13.90
2022-11-05T13:16:06.081Z,12.10
2022-11-05T13:18:44.106Z,13.50
2022-11-05T13:21:14.588Z,13.30
2022-11-05T13:23:52.506Z,12.73
2022-11-05T13:26:29.449Z,9.90
2022-11-05T13:29:05.552Z,10.47
2022-11-05T13:31:48.229Z,11.37
2022-11-05T13:34:18.088Z,10.83
2022-11-05T13:37:06.354Z,15.13
2022-11-05T13:39:44.222Z,14.00
2022-11-05T13:42:45.280Z,12.70
2022-11-05T13:46:08.645Z,12.03
2022-11-05T13:48:59.731Z,9.13
2022-11-05T13:51:53.824Z,11.47
2022-11-05T13:54:49.790Z,10.63
2022-11-05T13:57:49.117Z,6.83
2022-11-05T14:00:22.731Z,8.80
2022-11-05T14:02:57.207Z,12.70
2022-11-05T14:05:33.375Z,14.60
2022-11-05T14:08:12.853Z,11.10
2022-11-05T14:10:47.802Z,12.20
2022-11-05T14:13:26.216Z,8.07
2022-11-05T14:16:05.888Z,10.70
2022-11-05T14:18:46.088Z,10.20
2022-11-05T14:21:32.618Z,12.20
2022-11-05T14:24:20.767Z,11.40
2022-11-05T14:27:21.870Z,10.20
2022-11-05T14:29:54.406Z,9.87
2022-11-05T14:32:29.154Z,17.37
2022-11-05T14:35:05.421Z,9.17
2022-11-05T14:37:39.498Z,15.90
2022-11-05T14:40:32.842Z,14.50
2022-11-05T14:43:05.981Z,10.07
2022-11-05T14:45:42.806Z,13.40
2022-11-05T14:48:30.030Z,14.50
2022-11-05T14:51:02.199Z,9.47
2022-11-05T14:53:39.262Z,11.60
2022-11-05T14:56:12.335Z,10.70
2022-11-05T14:58:44.932Z,20.23
2022-11-05T15:01:44.881Z,10.00
2022-11-05T15:04:29.571Z,11.70
2022-11-05T15:07:37.540Z,8.87
2022-11-05T15:10:14.408Z,9.33
2022-11-05T15:12:48.500Z,16.27
2022-11-05T15:15:23.552Z,18.10
2022-11-05T15:18:18.358Z,7.40
2022-11-05T15:20:56.566Z,8.73
2022-11-05T15:23:29.503Z,12.30
2022-11-05T15:26:08.280Z,15.10
2022-11-05T15:28:43.233Z,10.70
2022-11-05T15:31:27.792Z,13.00
2022-11-05T15:34:19.098Z,13.20
2022-11-05T15:36:56.175Z,11.43
2022-11-05T15:39:34.083Z,12.03
2022-11-05T15:42:08.703Z,9.90
2022-11-05T15:44:42.964Z,8.93
2022-11-05T15:47:23.619Z,10.60
2022-11-05T15:49:56.984Z,14.03
2022-11-05T15:52:36.637Z,12.87
2022-11-05T15:55:23.846Z,12.03
2022-11-05T15:57:58.577Z,11.40
2022-11-05T16:00:31.113Z,11.40
2022-11-05T16:03:07.545Z,10.57
2022-11-05T16:05:45.804Z,12.83
2022-11-05T16:08:23.545Z,12.33
2022-11-05T16:10:58.167Z,13.53
2022-11-05T16:13:35.563Z,17.37
2022-11-05T16:16:08.869Z,11.33
2022-11-05T16:18:40.439Z,18.77
2022-11-05T16:21:13.202Z,16.70
2022-11-05T16:23:56.177Z,10.97
2022-11-05T16:29:31.297Z,14.57
2022-11-05T16:32:04.816Z,9.13
2022-11-05T16:34:40.348Z,14.43
2022-11-05T16:37:16.394Z,17.70
2022-11-05T16:39:49.335Z,11.77
2022-11-05T16:42:39.477Z,9.63
2022-11-05T16:45:14.026Z,13.30
2022-11-05T16:47:44.958Z,15.60
2022-11-05T16:50:22.369Z,11.63
2022-11-05T16:52:52.987Z,11.83
2022-11-05T16:55:26.410Z,10.40
2022-11-05T16:57:58.439Z,13.83
2022-11-05T17:00:29.594Z,13.37
2022-11-05T17:02:59.609Z,9.90
2022-11-05T17:05:32.119Z,13.83
2022-11-05T17:08:03.596Z,14.57
2022-11-05T17:10:37.394Z,14.57
2022-11-05T17:13:08.526Z,12.70
2022-11-05T17:15:39.510Z,15.00
2022-11-05T17:18:14.044Z,13.07
2022-11-05T17:20:51.355Z,12.93
2022-11-05T17:23:26.743Z,9.93
2022-11-05T17:26:03.569Z,10.30
2022-11-05T17:28:36.038Z,21.40
2022-11-05T17:31:09.348Z,16.67
2022-11-05T17:33:42.105Z,16.30
2022-11-05T17:36:17.601Z,11.03
2022-11-05T17:38:48.490Z,10.50
2022-11-05T17:41:23.935Z,12.33
2022-11-05T17:43:57.880Z,16.80
2022-11-05T17:46:28.777Z,9.50
2022-11-05T17:48:58.666Z,16.70
2022-11-05T17:51:29.671Z,12.30
2022-11-05T17:54:01.005Z,12.73
2022-11-05T17:56:40.276Z,10.00
2022-11-05T17:59:13.346Z,17.80
2022-11-05T18:01:46.149Z,12.57
2022-11-05T18:04:17.166Z,12.90
2022-11-05T18:06:49.242Z,11.80
2022-11-05T18:09:23.179Z,13.17
2022-11-05T18:11:56.778Z,11.13
2022-11-05T18:14:27.094Z,7.27
2022-11-05T18:17:00.281Z,11.50
2022-11-05T18:19:30.490Z,12.33
2022-11-05T18:22:00.533Z,10.57
2022-11-05T18:24:31.949Z,8.63
2022-11-05T18:27:04.526Z,12.60
2022-11-05T18:29:36.551Z,19.23
2022-11-05T18:32:07.330Z,9.47
2022-11-05T18:34:38.775Z,9.57
2022-11-05T18:37:09.869Z,12.00
2022-11-05T18:39:40.897Z,9.87
2022-11-05T18:42:14.472Z,9.90
2022-11-05T18:44:45.541Z,11.60
2022-11-05T18:47:17.741Z,11.97
2022-11-05T18:49:47.558Z,9.03
2022-11-05T18:52:19.520Z,10.77
2022-11-05T18:54:50.704Z,7.07
2022-11-05T18:57:23.317Z,7.83
2022-11-05T18:59:53.370Z,13.47
2022-11-05T19:02:24.519Z,9.30
2022-11-05T19:05:26.796Z,8.87
2022-11-05T19:07:47.354Z,9.00
2022-11-05T19:10:18.580Z,8.07
2022-11-05T19:12:52.213Z,7.17
2022-11-05T19:15:23.153Z,8.20
2022-11-05T19:17:53.239Z,7.47
2022-11-05T19:20:24.052Z,7.80
2022-11-05T19:22:54.854Z,8.30
2022-11-05T19:25:25.896Z,7.20
2022-11-05T19:27:59.508Z,6.10
2022-11-05T19:30:30.490Z,7.30
2022-11-05T19:33:01.456Z,7.37
2022-11-05T19:35:34.658Z,14.23
2022-11-05T19:38:09.739Z,8.27
2022-11-05T19:40:40.350Z,6.10
2022-11-05T19:43:13.056Z,7.47
2022-11-05T19:45:45.284Z,6.90
2022-11-05T19:48:19.510Z,12.50
2022-11-05T19:50:51.111Z,10.90
2022-11-05T19:53:22.135Z,8.57
2022-11-05T19:55:53.236Z,9.27
2022-11-05T19:58:26.811Z,15.50
2022-11-05T20:00:58.614Z,7.53
2022-11-05T20:03:29.655Z,4.63
2022-11-05T20:06:04.936Z,5.30
2022-11-05T20:08:53.077Z,8.50
2022-11-05T20:11:26.574Z,11.70
2022-11-05T20:13:59.315Z,9.83
2022-11-05T20:16:36.845Z,9.60
2022-11-05T20:19:09.852Z,9.93
2022-11-05T20:21:41.169Z,8.23
2022-11-05T20:24:17.447Z,4.93
2022-11-05T20:26:53.396Z,6.30
2022-11-05T20:29:34.706Z,5.67
2022-11-05T20:32:07.039Z,5.60
2022-11-05T20:34:38.142Z,6.90
2022-11-05T20:37:09.186Z,13.30
2022-11-05T20:39:40.166Z,6.83
2022-11-05T20:42:10.193Z,8.73
2022-11-05T20:44:44.771Z,3.63
2022-11-05T20:47:15.988Z,4.20
2022-11-05T20:49:45.957Z,12.77
2022-11-05T20:52:18.387Z,6.87
2022-11-05T20:54:50.775Z,7.40
2022-11-05T20:57:22.396Z,6.53
2022-11-05T20:59:56.878Z,8.30
2022-11-05T21:02:27.925Z,8.93
2022-11-05T21:04:58.970Z,7.73
2022-11-05T21:07:30.004Z,6.73
2022-11-05T21:10:00.033Z,6.53
2022-11-05T21:12:32.055Z,9.37
2022-11-05T21:15:05.942Z,5.13
2022-11-05T21:17:36.743Z,5.57
2022-11-05T21:20:09.162Z,4.67
2022-11-05T21:22:39.150Z,4.60
2022-11-05T21:25:10.580Z,7.00
2022-11-05T21:27:43.741Z,4.20
2022-11-05T21:30:17.086Z,9.43
2022-11-05T21:32:47.977Z,5.37
2022-11-05T21:35:17.952Z,8.93
2022-11-05T21:37:47.915Z,6.13
2022-11-05T21:40:19.070Z,8.07
2022-11-05T21:42:50.150Z,7.83
2022-11-05T21:45:23.608Z,9.10
2022-11-05T21:47:54.462Z,13.07
2022-11-05T21:50:44.918Z,8.63
2022-11-05T21:53:29.167Z,10.50
2022-11-05T21:56:16.259Z,6.23
2022-11-05T21:58:58.621Z,9.20
2022-11-05T22:01:31.784Z,9.50
2022-11-05T22:04:03.319Z,5.97
2022-11-05T22:06:35.471Z,6.67
2022-11-05T22:09:05.263Z,7.53
2022-11-05T22:11:38.808Z,7.50
2022-11-05T22:14:08.761Z,8.63
2022-11-05T22:16:41.323Z,4.77
2022-11-05T22:19:12.250Z,6.23
2022-11-05T22:21:42.140Z,16.30
2022-11-05T22:24:12.337Z,7.33
2022-11-05T22:26:42.982Z,9.47
2022-11-05T22:29:13.208Z,8.33
2022-11-05T22:31:45.870Z,7.40
2022-11-05T22:34:15.729Z,10.20
2022-11-05T22:36:45.844Z,7.43
2022-11-05T22:39:16.500Z,12.43
2022-11-05T22:41:47.023Z,8.60
2022-11-05T22:44:17.372Z,9.63
2022-11-05T22:46:49.814Z,10.23
2022-11-05T22:49:19.832Z,10.40
2022-11-05T22:51:49.589Z,6.00
2022-11-05T22:54:19.362Z,10.57
2022-11-05T22:56:50.282Z,6.77
2022-11-05T22:59:20.425Z,8.97
2022-11-05T23:01:53.011Z,8.67
2022-11-05T23:04:22.884Z,6.40
2022-11-05T23:07:05.089Z,7.47
2022-11-05T23:09:49.581Z,7.40
2022-11-05T23:12:28.631Z,4.93
2022-11-05T23:15:00.346Z,8.53
2022-11-05T23:18:00.305Z,8.50
2022-11-05T23:20:42.541Z,7.33
2022-11-05T23:23:31.684Z,10.07
2022-11-05T23:26:22.205Z,5.37
2022-11-05T23:28:51.985Z,9.03
2022-11-05T23:31:34.389Z,8.67
2022-11-05T23:34:07.078Z,12.70
2022-11-05T23:36:51.672Z,7.07
2022-11-05T23:39:21.486Z,9.00
2022-11-05T23:42:03.835Z,7.70
2022-11-05T23:44:46.074Z,10.07
2022-11-05T23:47:28.334Z,8.00
2022-11-05T23:50:00.689Z,9.97
2022-11-05T23:52:30.529Z,7.40
2022-11-05T23:55:00.330Z,11.53
2022-11-05T23:57:30.164Z,12.80
2022-11-05T23:59:59.955Z,6.27
